Time;durP1;ratioP1;P1;durP2;ratioP2;P2;SDS_P1;SDS_P2;PMS_P1;PMS_P2;Temp;Humidity;BMP_temperature;BMP_pressure;BME280_temperature;BME280_humidity;BME280_pressure;Samples;Min_cycle;Max_cycle;Signal;HPM_P1;HPM_P2
2023/04/27 00:00:30;;;;;;;;;;;10.40;82.20;;;;;;5024354;28;19974;-92
2023/04/27 00:02:56;;;;;;;;;;;10.50;81.70;;;;;;5035126;28;19941;-93
2023/04/27 00:05:22;;;;;;;;;;;10.50;81.40;;;;;;5016852;28;19959;-92
2023/04/27 00:07:47;;;;;;;;;;;10.40;82.30;;;;;;5034823;28;19964;-93
2023/04/27 00:10:13;;;;;;;;;;;10.40;81.70;;;;;;5034461;28;19917;-91
2023/04/27 00:12:40;;;;;;;;;;;10.40;81.40;;;;;;5034964;28;19963;-92
2023/04/27 00:15:06;;;;;;;;;;;10.40;81.10;;;;;;5034400;28;19909;-93
2023/04/27 00:17:32;;;;;;;;;;;10.40;80.90;;;;;;5034931;28;20268;-92
2023/04/27 00:19:57;;;;;;;;;;;10.40;80.80;;;;;;5034255;28;19999;-93
2023/04/27 00:22:23;;;;;;;;;;;10.40;81.00;;;;;;5034604;28;19909;-93
2023/04/27 00:24:49;;;;;;;;;;;10.40;80.60;;;;;;5034544;28;19976;-93
2023/04/27 00:27:14;;;;;;;;;;;10.20;80.40;;;;;;5034761;28;20000;-92
2023/04/27 00:29:43;;;;;;;;;;;10.10;80.70;;;;;;5034460;28;19944;-92
2023/04/27 00:32:09;;;;;;;;;;;10.10;81.00;;;;;;5034607;28;19913;-92
2023/04/27 00:34:35;;;;;;;;;;;10.00;82.00;;;;;;5034688;28;19912;-93
2023/04/27 00:37:01;;;;;;;;;;;9.90;81.70;;;;;;5034065;28;20000;-92
2023/04/27 00:39:26;;;;;;;;;;;9.80;81.70;;;;;;5034465;28;19949;-92
2023/04/27 00:41:52;;;;;;;;;;;9.80;82.20;;;;;;5033915;28;19913;-91
2023/04/27 00:44:24;;;;;;;;;;;9.80;83.50;;;;;;5034269;28;20360;-92
2023/04/27 00:46:50;;;;;;;;;;;9.80;83.50;;;;;;5034212;28;19943;-92
2023/04/27 00:49:16;;;;;;;;;;;9.80;83.20;;;;;;5034195;28;20410;-92
2023/04/27 00:51:42;;;;;;;;;;;9.70;83.10;;;;;;5033904;28;19909;-92
2023/04/27 00:54:07;;;;;;;;;;;9.70;83.20;;;;;;5034168;28;19917;-92
2023/04/27 00:56:33;;;;;;;;;;;9.70;83.30;;;;;;5033685;28;19948;-92
2023/04/27 00:58:59;;;;;;;;;;;9.70;83.80;;;;;;5034094;28;19955;-91
2023/04/27 01:01:25;;;;;;;;;;;9.70;83.80;;;;;;5033547;28;20376;-92
2023/04/27 01:03:51;;;;;;;;;;;9.70;83.60;;;;;;5034297;28;19915;-93
2023/04/27 01:06:17;;;;;;;;;;;9.80;83.30;;;;;;5033729;28;19916;-92
2023/04/27 01:08:43;;;;;;;;;;;9.90;82.90;;;;;;5034272;28;20264;-92
2023/04/27 01:11:08;;;;;;;;;;;9.90;82.30;;;;;;5033938;28;19909;-92
2023/04/27 01:13:34;;;;;;;;;;;9.90;82.90;;;;;;5015988;28;19913;-92
2023/04/27 01:15:59;;;;;;;;;;;9.80;83.30;;;;;;5034195;28;19916;-92
2023/04/27 01:18:25;;;;;;;;;;;9.70;83.10;;;;;;5033905;28;19909;-93
2023/04/27 01:20:50;;;;;;;;;;;9.80;83.70;;;;;;5034040;28;19913;-92
2023/04/27 01:23:16;;;;;;;;;;;9.80;83.50;;;;;;5033560;28;19909;-91
2023/04/27 01:25:42;;;;;;;;;;;9.80;83.00;;;;;;5033826;28;19913;-92
2023/04/27 01:28:07;;;;;;;;;;;9.70;82.60;;;;;;5015844;28;19910;-92
2023/04/27 01:30:33;;;;;;;;;;;9.70;82.30;;;;;;5034058;28;19913;-91
2023/04/27 01:32:58;;;;;;;;;;;9.70;82.60;;;;;;5033566;28;19916;-91
2023/04/27 01:35:24;;;;;;;;;;;9.70;82.80;;;;;;5034039;28;19909;-91
2023/04/27 01:37:50;;;;;;;;;;;9.60;82.40;;;;;;5033748;28;20011;-92
2023/04/27 01:40:15;;;;;;;;;;;9.50;83.50;;;;;;5033335;28;19960;-91
2023/04/27 01:42:41;;;;;;;;;;;9.40;83.90;;;;;;5033641;28;20004;-91
2023/04/27 01:45:07;;;;;;;;;;;9.50;83.70;;;;;;5033398;28;20372;-92
2023/04/27 01:47:32;;;;;;;;;;;9.40;83.40;;;;;;5033612;28;19963;-92
2023/04/27 01:49:58;;;;;;;;;;;9.40;83.80;;;;;;5033303;28;19917;-91
2023/04/27 01:52:24;;;;;;;;;;;9.40;83.60;;;;;;5033466;28;20323;-91
2023/04/27 01:54:49;;;;;;;;;;;9.30;84.10;;;;;;5033650;28;20320;-92
2023/04/27 01:57:15;;;;;;;;;;;9.20;84.60;;;;;;5033789;28;20246;-91
2023/04/27 01:59:40;;;;;;;;;;;9.00;84.70;;;;;;5033306;28;19928;-92
2023/04/27 02:02:06;;;;;;;;;;;9.00;85.70;;;;;;5033755;28;19964;-93
2023/04/27 02:04:31;;;;;;;;;;;9.10;85.70;;;;;;5033195;28;19963;-92
2023/04/27 02:06:57;;;;;;;;;;;9.10;85.40;;;;;;5033723;28;19962;-92
2023/04/27 02:09:23;;;;;;;;;;;9.10;85.10;;;;;;5036642;28;19913;-92
2023/04/27 02:11:48;;;;;;;;;;;9.10;85.20;;;;;;5037006;28;19913;-92
2023/04/27 02:14:14;;;;;;;;;;;9.00;86.00;;;;;;5036945;28;19909;-92
2023/04/27 02:16:39;;;;;;;;;;;9.10;85.90;;;;;;5037211;28;19917;-92
2023/04/27 02:19:05;;;;;;;;;;;9.20;85.70;;;;;;5036616;28;19924;-91
2023/04/27 02:21:31;;;;;;;;;;;9.20;85.20;;;;;;5037036;28;19914;-92
2023/04/27 02:23:57;;;;;;;;;;;9.10;85.80;;;;;;5036525;28;19909;-93
2023/04/27 02:26:28;;;;;;;;;;;9.00;85.60;;;;;;5036731;28;20316;-92
2023/04/27 02:28:53;;;;;;;;;;;9.10;86.20;;;;;;5019003;28;19909;-92
2023/04/27 02:31:19;;;;;;;;;;;9.20;86.10;;;;;;5036674;28;19909;-93
2023/04/27 02:33:45;;;;;;;;;;;9.20;86.20;;;;;;5036579;28;19915;-92
2023/04/27 02:36:10;;;;;;;;;;;9.20;86.10;;;;;;5036598;28;19959;-92
2023/04/27 02:38:36;;;;;;;;;;;9.10;85.90;;;;;;5036289;28;20292;-92
2023/04/27 02:41:01;;;;;;;;;;;9.10;86.20;;;;;;5036039;28;20368;-92
2023/04/27 02:43:27;;;;;;;;;;;9.00;87.00;;;;;;5036438;28;20304;-91
2023/04/27 02:45:52;;;;;;;;;;;9.10;86.80;;;;;;5036412;28;19916;-92
2023/04/27 02:48:18;;;;;;;;;;;9.10;86.60;;;;;;5036646;28;19913;-91
2023/04/27 02:50:43;;;;;;;;;;;9.10;86.60;;;;;;5036321;28;19913;-91
2023/04/27 02:53:10;;;;;;;;;;;9.00;86.50;;;;;;5036510;28;19916;-92
2023/04/27 02:55:36;;;;;;;;;;;9.00;87.00;;;;;;5036241;28;19916;-92
2023/04/27 02:58:01;;;;;;;;;;;9.10;87.30;;;;;;5036438;28;19910;-92
2023/04/27 03:00:27;;;;;;;;;;;9.20;86.70;;;;;;5035757;28;19928;-92
2023/04/27 03:02:52;;;;;;;;;;;9.20;86.40;;;;;;5036059;28;19916;-92
2023/04/27 03:05:18;;;;;;;;;;;9.20;86.20;;;;;;5036030;28;19913;-92
2023/04/27 03:07:43;;;;;;;;;;;9.20;86.60;;;;;;5035983;28;19924;-92
2023/04/27 03:10:10;;;;;;;;;;;9.10;87.30;;;;;;5035647;28;19975;-92
2023/04/27 03:12:35;;;;;;;;;;;9.10;87.40;;;;;;5036227;28;19916;-93
2023/04/27 03:15:01;;;;;;;;;;;9.10;87.40;;;;;;5035879;28;19909;-93
2023/04/27 03:17:27;;;;;;;;;;;9.10;87.70;;;;;;5035812;28;19910;-92
2023/04/27 03:19:52;;;;;;;;;;;9.00;88.00;;;;;;5035394;28;20265;-91
2023/04/27 03:22:18;;;;;;;;;;;9.10;87.60;;;;;;5035770;28;19963;-92
2023/04/27 03:24:44;;;;;;;;;;;9.10;87.80;;;;;;5017700;28;20280;-92
2023/04/27 03:27:09;;;;;;;;;;;9.10;87.70;;;;;;5035880;28;19909;-92
2023/04/27 03:29:35;;;;;;;;;;;9.10;88.00;;;;;;5035602;28;19909;-91
2023/04/27 03:32:02;;;;;;;;;;;9.20;87.50;;;;;;5035723;28;19909;-91
2023/04/27 03:34:28;;;;;;;;;;;9.20;87.40;;;;;;5035479;28;19988;-92
2023/04/27 03:36:54;;;;;;;;;;;9.30;87.10;;;;;;5035405;28;20003;-92
2023/04/27 03:39:19;;;;;;;;;;;9.30;86.90;;;;;;5035337;28;19909;-92
2023/04/27 03:41:45;;;;;;;;;;;9.30;86.40;;;;;;5034876;28;19913;-92
2023/04/27 03:44:10;;;;;;;;;;;9.20;86.40;;;;;;5035251;28;19909;-91
2023/04/27 03:46:36;;;;;;;;;;;9.20;86.10;;;;;;5035219;28;19909;-92
2023/04/27 03:49:02;;;;;;;;;;;9.10;86.20;;;;;;5035482;28;19953;-92
2023/04/27 03:51:28;;;;;;;;;;;9.10;86.80;;;;;;5035157;28;19949;-93
2023/04/27 03:53:54;;;;;;;;;;;9.00;86.70;;;;;;5034898;28;19935;-92
2023/04/27 03:56:20;;;;;;;;;;;8.90;87.10;;;;;;5035301;28;19910;-92
2023/04/27 03:58:45;;;;;;;;;;;8.70;87.80;;;;;;5035030;28;19913;-92
2023/04/27 04:01:11;;;;;;;;;;;8.70;88.10;;;;;;5034586;28;20024;-91
2023/04/27 04:03:36;;;;;;;;;;;8.70;88.30;;;;;;5034612;28;19961;-92
2023/04/27 04:06:05;;;;;;;;;;;8.70;88.70;;;;;;5034883;28;19999;-91
2023/04/27 04:08:31;;;;;;;;;;;8.80;88.70;;;;;;5016820;28;19916;-91
2023/04/27 04:10:57;;;;;;;;;;;8.80;88.50;;;;;;5016831;28;20004;-92
2023/04/27 04:13:22;;;;;;;;;;;8.80;88.30;;;;;;5035031;28;19940;-92
2023/04/27 04:15:48;;;;;;;;;;;8.90;88.10;;;;;;5034706;28;19917;-92
2023/04/27 04:18:14;;;;;;;;;;;8.90;88.10;;;;;;5034912;28;19916;-92
2023/04/27 04:20:39;;;;;;;;;;;8.90;87.80;;;;;;5034316;28;20011;-91
2023/04/27 04:23:06;;;;;;;;;;;9.00;87.40;;;;;;5034604;28;19932;-92
2023/04/27 04:25:31;;;;;;;;;;;9.00;87.30;;;;;;5034563;28;20360;-94
2023/04/27 04:27:57;;;;;;;;;;;8.90;87.50;;;;;;5034525;28;19917;-94
2023/04/27 04:30:22;;;;;;;;;;;8.90;88.00;;;;;;5033857;28;20027;-94
2023/04/27 04:32:48;;;;;;;;;;;9.00;87.90;;;;;;5034048;28;19920;-94
2023/04/27 04:35:16;;;;;;;;;;;9.00;87.70;;;;;;5016376;28;20004;-94
2023/04/27 04:37:42;;;;;;;;;;;9.10;87.60;;;;;;5016377;28;19909;-95
2023/04/27 04:40:08;;;;;;;;;;;9.00;87.70;;;;;;5034002;28;19956;-95
2023/04/27 04:42:37;;;;;;;;;;;9.10;87.50;;;;;;5034289;28;19919;-95
2023/04/27 04:45:03;;;;;;;;;;;9.10;87.70;;;;;;5034233;28;19931;-95
2023/04/27 04:47:30;;;;;;;;;;;9.10;87.80;;;;;;5034246;28;20453;-94
2023/04/27 04:49:56;;;;;;;;;;;9.10;87.90;;;;;;5034225;28;20447;-94
2023/04/27 04:52:22;;;;;;;;;;;9.00;88.00;;;;;;5016170;28;19957;-94
2023/04/27 04:54:50;;;;;;;;;;;8.90;88.20;;;;;;5034141;28;19909;-95
2023/04/27 04:57:16;;;;;;;;;;;8.90;88.50;;;;;;5033747;28;19909;-94
2023/04/27 04:59:41;;;;;;;;;;;8.90;88.90;;;;;;5044171;22;20304;-95
2023/04/27 05:02:07;;;;;;;;;;;9.00;89.40;;;;;;5053592;28;20376;-94
2023/04/27 05:04:32;;;;;;;;;;;9.10;89.10;;;;;;5052323;28;19999;-95
2023/04/27 05:06:58;;;;;;;;;;;9.20;88.90;;;;;;5053936;28;20002;-95
2023/04/27 05:09:24;;;;;;;;;;;9.40;88.70;;;;;;5053694;28;19909;-96
2023/04/27 05:11:50;;;;;;;;;;;9.40;88.50;;;;;;5053838;28;19916;-94
2023/04/27 05:14:16;;;;;;;;;;;9.40;88.40;;;;;;5052291;28;19915;-96
2023/04/27 05:16:41;;;;;;;;;;;9.50;88.20;;;;;;5053548;28;19909;-95
2023/04/27 05:19:07;;;;;;;;;;;9.50;88.10;;;;;;5053522;28;19908;-94
2023/04/27 05:21:32;;;;;;;;;;;9.70;88.10;;;;;;5052208;28;19912;-94
2023/04/27 05:23:58;;;;;;;;;;;9.70;88.20;;;;;;5053588;28;19912;-96
2023/04/27 05:26:24;;;;;;;;;;;9.60;88.10;;;;;;5053188;28;19940;-95
2023/04/27 05:28:50;;;;;;;;;;;9.60;88.50;;;;;;5053349;28;19909;-95
2023/04/27 05:31:15;;;;;;;;;;;9.70;88.60;;;;;;5052908;28;19909;-95
2023/04/27 05:33:41;;;;;;;;;;;9.80;88.40;;;;;;5053015;28;20386;-94
2023/04/27 05:36:08;;;;;;;;;;;9.90;88.00;;;;;;5053298;28;19909;-95
2023/04/27 05:38:34;;;;;;;;;;;10.00;87.90;;;;;;5053245;28;19909;-95
2023/04/27 05:41:00;;;;;;;;;;;10.10;87.70;;;;;;5053026;28;19917;-95
2023/04/27 05:43:26;;;;;;;;;;;10.20;87.90;;;;;;5055088;28;19916;-94
2023/04/27 05:45:52;;;;;;;;;;;10.30;88.00;;;;;;5057241;28;19908;-94
2023/04/27 05:48:18;;;;;;;;;;;10.40;88.10;;;;;;5056930;28;19996;-95
2023/04/27 05:50:43;;;;;;;;;;;10.40;87.90;;;;;;5056994;28;19958;-94
2023/04/27 05:53:09;;;;;;;;;;;10.40;88.00;;;;;;5055566;28;19913;-95
2023/04/27 05:55:35;;;;;;;;;;;10.60;88.20;;;;;;5056794;28;19916;-94
2023/04/27 05:58:00;;;;;;;;;;;10.70;88.40;;;;;;5056636;28;19912;-95
2023/04/27 06:00:27;;;;;;;;;;;10.80;88.00;;;;;;5056394;28;20415;-94
2023/04/27 06:02:52;;;;;;;;;;;10.90;87.60;;;;;;5056845;28;19909;-95
2023/04/27 06:05:18;;;;;;;;;;;11.10;86.40;;;;;;5055489;28;19916;-94
2023/04/27 06:07:44;;;;;;;;;;;11.40;85.80;;;;;;5056909;28;19967;-96
2023/04/27 06:10:10;;;;;;;;;;;11.60;86.10;;;;;;5056681;28;19909;-95
2023/04/27 06:12:36;;;;;;;;;;;11.80;86.10;;;;;;5056712;28;20006;-96
2023/04/27 06:15:07;;;;;;;;;;;11.90;85.90;;;;;;5056666;28;19913;-96
2023/04/27 06:17:34;;;;;;;;;;;12.10;84.10;;;;;;5055316;28;19909;-96
2023/04/27 06:19:59;;;;;;;;;;;12.30;83.20;;;;;;5056832;28;20414;-95
2023/04/27 06:22:26;;;;;;;;;;;12.50;82.20;;;;;;5056583;28;19909;-95
2023/04/27 06:24:51;;;;;;;;;;;12.70;81.10;;;;;;5055335;28;19958;-95
2023/04/27 06:27:17;;;;;;;;;;;12.90;81.00;;;;;;5054758;28;19908;-96
2023/04/27 06:29:42;;;;;;;;;;;13.00;80.00;;;;;;5056960;28;19908;-95
2023/04/27 06:32:08;;;;;;;;;;;13.20;78.70;;;;;;5055451;28;19915;-96
2023/04/27 06:34:34;;;;;;;;;;;13.30;77.70;;;;;;5055129;28;19967;-95
2023/04/27 06:36:59;;;;;;;;;;;13.40;77.10;;;;;;5056615;28;19913;-96
2023/04/27 06:39:25;;;;;;;;;;;13.50;76.20;;;;;;5056269;28;19909;-94
2023/04/27 06:41:51;;;;;;;;;;;13.60;76.30;;;;;;5054808;28;19913;-95
2023/04/27 06:44:16;;;;;;;;;;;13.60;74.80;;;;;;5056578;28;19940;-95
2023/04/27 06:46:42;;;;;;;;;;;13.70;74.10;;;;;;5055399;28;20058;-96
2023/04/27 06:49:07;;;;;;;;;;;13.70;73.80;;;;;;5058620;28;20311;-95
2023/04/27 06:51:33;;;;;;;;;;;13.70;74.80;;;;;;5060496;28;19956;-96
2023/04/27 06:53:59;;;;;;;;;;;13.90;74.70;;;;;;5061121;28;19919;-96
2023/04/27 06:56:24;;;;;;;;;;;14.00;73.70;;;;;;5058962;28;19909;-96
2023/04/27 06:58:50;;;;;;;;;;;14.00;73.10;;;;;;5058616;28;19908;-96
2023/04/27 07:01:15;;;;;;;;;;;14.20;72.60;;;;;;5056240;28;19927;-96
2023/04/27 07:03:41;;;;;;;;;;;14.30;72.70;;;;;;5057192;28;20008;-96
2023/04/27 07:06:07;;;;;;;;;;;14.40;72.20;;;;;;5056963;28;19908;-95
2023/04/27 07:08:32;;;;;;;;;;;14.40;72.00;;;;;;5056865;28;19932;-96
2023/04/27 07:10:58;;;;;;;;;;;14.50;71.00;;;;;;5056506;28;20265;-95
2023/04/27 07:13:23;;;;;;;;;;;14.70;70.30;;;;;;5056032;28;19909;-96
2023/04/27 07:15:53;;;;;;;;;;;14.90;70.00;;;;;;5057441;28;19920;-96
2023/04/27 07:18:19;;;;;;;;;;;14.90;69.70;;;;;;5056308;28;20004;-96
2023/04/27 07:20:44;;;;;;;;;;;14.90;67.70;;;;;;5058000;28;19956;-96
2023/04/27 07:23:10;;;;;;;;;;;15.00;66.30;;;;;;5055843;28;19909;-94
2023/04/27 07:25:36;;;;;;;;;;;15.00;64.80;;;;;;5055233;28;19958;-96
2023/04/27 07:28:01;;;;;;;;;;;14.90;65.70;;;;;;5055287;28;19915;-94
2023/04/27 07:30:29;;;;;;;;;;;14.90;67.20;;;;;;5053762;28;20330;-96
2023/04/27 07:32:55;;;;;;;;;;;14.90;66.70;;;;;;5054968;28;19913;-95
2023/04/27 07:35:21;;;;;;;;;;;14.90;66.90;;;;;;5055301;28;19933;-96
2023/04/27 07:37:46;;;;;;;;;;;14.90;66.90;;;;;;5056210;28;19909;-95
2023/04/27 07:40:15;;;;;;;;;;;15.00;66.20;;;;;;5057043;28;19909;-95
2023/04/27 07:42:41;;;;;;;;;;;15.10;64.80;;;;;;5054954;28;19956;-96
2023/04/27 07:45:09;;;;;;;;;;;15.10;65.50;;;;;;5058436;28;20009;-95
2023/04/27 07:47:35;;;;;;;;;;;15.20;65.50;;;;;;5058488;28;19919;-95
2023/04/27 07:50:01;;;;;;;;;;;15.20;66.60;;;;;;5059137;28;19988;-95
2023/04/27 07:52:26;;;;;;;;;;;15.30;66.80;;;;;;5058519;28;19909;-95
2023/04/27 07:54:52;;;;;;;;;;;15.40;67.20;;;;;;5058180;28;19909;-95
2023/04/27 07:57:17;;;;;;;;;;;15.40;62.90;;;;;;5057419;28;19912;-96
2023/04/27 07:59:43;;;;;;;;;;;15.60;63.40;;;;;;5057341;28;20357;-95
2023/04/27 08:02:11;;;;;;;;;;;15.70;62.20;;;;;;5058488;28;19921;-96
2023/04/27 08:04:36;;;;;;;;;;;15.80;63.00;;;;;;5059755;28;19909;-96
2023/04/27 08:07:02;;;;;;;;;;;15.90;62.00;;;;;;5055588;28;19916;-95
2023/04/27 08:09:27;;;;;;;;;;;16.00;61.00;;;;;;5056019;28;19931;-96
2023/04/27 08:11:53;;;;;;;;;;;16.20;59.40;;;;;;5056395;28;19909;-96
2023/04/27 08:14:19;;;;;;;;;;;16.30;59.40;;;;;;5055831;28;19920;-94
2023/04/27 08:16:44;;;;;;;;;;;16.30;60.00;;;;;;5057586;28;20004;-96
2023/04/27 08:19:10;;;;;;;;;;;16.40;61.00;;;;;;5057730;28;20306;-95
2023/04/27 08:21:36;;;;;;;;;;;16.40;62.30;;;;;;5054109;28;19919;-95
2023/04/27 08:24:02;;;;;;;;;;;16.50;61.30;;;;;;5054169;28;20433;-95
2023/04/27 08:26:28;;;;;;;;;;;16.50;61.30;;;;;;5054058;28;19909;-95
2023/04/27 08:28:55;;;;;;;;;;;16.40;61.40;;;;;;5052685;28;20368;-96
2023/04/27 08:31:21;;;;;;;;;;;16.50;61.00;;;;;;5054072;28;19909;-96
2023/04/27 08:33:47;;;;;;;;;;;16.60;60.80;;;;;;5054320;28;19909;-96
2023/04/27 08:36:12;;;;;;;;;;;16.60;61.10;;;;;;5054522;28;19924;-95
2023/04/27 08:38:38;;;;;;;;;;;16.70;61.00;;;;;;5054302;28;19908;-96
2023/04/27 08:41:03;;;;;;;;;;;16.80;61.40;;;;;;5054162;28;19965;-96
2023/04/27 08:43:35;;;;;;;;;;;16.90;56.10;;;;;;5054277;28;19913;-96
2023/04/27 08:46:01;;;;;;;;;;;16.90;56.00;;;;;;5053511;28;20441;-96
2023/04/27 08:48:27;;;;;;;;;;;17.00;58.00;;;;;;5052798;28;19913;-96
2023/04/27 08:50:54;;;;;;;;;;;17.10;55.30;;;;;;5054343;28;20386;-96
2023/04/27 08:53:22;;;;;;;;;;;17.00;50.30;;;;;;5052828;28;19920;-95
2023/04/27 08:55:49;;;;;;;;;;;17.10;55.00;;;;;;5053007;28;19908;-96
2023/04/27 08:58:14;;;;;;;;;;;17.10;56.80;;;;;;5053950;28;19915;-95
2023/04/27 09:00:41;;;;;;;;;;;17.10;54.80;;;;;;5053715;28;20000;-95
2023/04/27 09:03:07;;;;;;;;;;;17.10;55.20;;;;;;5052467;28;19940;-96
2023/04/27 09:05:32;;;;;;;;;;;17.20;56.40;;;;;;5052418;28;19947;-96
2023/04/27 09:08:07;;;;;;;;;;;17.30;52.70;;;;;;5053648;28;20215;-96
2023/04/27 09:10:53;;;;;;;;;;;17.30;48.90;;;;;;5053937;28;19959;-95
2023/04/27 09:13:19;;;;;;;;;;;17.40;47.50;;;;;;5053706;28;19909;-96
2023/04/27 09:15:46;;;;;;;;;;;17.60;48.20;;;;;;5052243;28;19999;-96
2023/04/27 09:18:20;;;;;;;;;;;17.60;47.60;;;;;;5056808;28;19962;-96
2023/04/27 09:20:46;;;;;;;;;;;17.60;47.90;;;;;;5057592;28;20007;-96
2023/04/27 09:23:32;;;;;;;;;;;17.60;48.70;;;;;;5057724;28;20356;-95
2023/04/27 09:25:58;;;;;;;;;;;17.70;47.70;;;;;;5055922;28;20364;-96
2023/04/27 09:28:26;;;;;;;;;;;17.70;49.50;;;;;;5056633;28;19908;-96
2023/04/27 09:30:58;;;;;;;;;;;17.80;52.70;;;;;;5058041;28;19951;-96
2023/04/27 09:33:25;;;;;;;;;;;17.80;45.10;;;;;;5057315;28;19962;-96
2023/04/27 09:35:51;;;;;;;;;;;17.80;46.80;;;;;;5057775;28;19909;-96
2023/04/27 09:38:17;;;;;;;;;;;18.00;47.50;;;;;;5058214;28;20330;-96
2023/04/27 09:40:43;;;;;;;;;;;18.00;48.10;;;;;;5058408;28;20356;-96
2023/04/27 09:43:09;;;;;;;;;;;18.10;47.30;;;;;;5058947;28;19916;-96
2023/04/27 09:45:36;;;;;;;;;;;18.30;49.30;;;;;;5056908;28;19913;-96
2023/04/27 09:48:03;;;;;;;;;;;18.40;50.30;;;;;;5057593;28;19909;-96
2023/04/27 09:50:28;;;;;;;;;;;18.40;46.70;;;;;;5056943;28;20003;-96
2023/04/27 09:52:54;;;;;;;;;;;18.50;43.10;;;;;;5056947;28;19975;-96
2023/04/27 09:55:37;;;;;;;;;;;18.40;45.60;;;;;;5058187;28;20352;-96
2023/04/27 09:58:22;;;;;;;;;;;18.50;45.10;;;;;;5057942;28;19908;-96
2023/04/27 10:00:58;;;;;;;;;;;18.50;48.40;;;;;;5059002;28;19960;-96
2023/04/27 10:03:27;;;;;;;;;;;18.60;47.60;;;;;;5061364;28;19916;-96
2023/04/27 10:06:05;;;;;;;;;;;18.60;49.70;;;;;;5060622;28;20317;-96
2023/04/27 10:08:33;;;;;;;;;;;18.60;48.10;;;;;;5061041;28;19909;-96
2023/04/27 10:10:58;;;;;;;;;;;18.60;46.50;;;;;;5063500;28;19909;-96
2023/04/27 10:13:25;;;;;;;;;;;18.60;45.10;;;;;;5063977;28;19909;-96
2023/04/27 10:15:51;;;;;;;;;;;18.60;49.60;;;;;;5066138;28;19916;-96
2023/04/27 10:18:32;;;;;;;;;;;18.90;49.80;;;;;;5066497;28;19915;-96
2023/04/27 10:21:10;;;;;;;;;;;18.80;41.70;;;;;;5064404;28;19919;-96
2023/04/27 10:23:44;;;;;;;;;;;18.80;41.80;;;;;;5068443;28;19909;-96
2023/04/27 10:26:10;;;;;;;;;;;18.90;45.00;;;;;;5066570;28;19913;-96
2023/04/27 10:28:40;;;;;;;;;;;18.80;42.60;;;;;;5066068;28;20284;-96
2023/04/27 10:31:14;;;;;;;;;;;18.80;40.10;;;;;;5063640;28;20003;-96
2023/04/27 10:33:45;;;;;;;;;;;18.80;40.90;;;;;;5064420;28;19920;-96
2023/04/27 10:36:14;;;;;;;;;;;18.80;47.50;;;;;;5062341;28;19908;-96
2023/04/27 10:38:40;;;;;;;;;;;18.80;49.60;;;;;;5062156;28;19954;-96
2023/04/27 10:41:12;;;;;;;;;;;18.90;43.30;;;;;;5061560;28;19936;-96
2023/04/27 10:43:37;;;;;;;;;;;18.90;46.50;;;;;;5058734;28;19909;-96
2023/04/27 10:46:08;;;;;;;;;;;18.90;39.90;;;;;;5057583;28;19969;-96
2023/04/27 10:48:33;;;;;;;;;;;19.00;40.40;;;;;;5057772;28;19909;-96
2023/04/27 10:51:00;;;;;;;;;;;18.90;40.60;;;;;;5059266;28;19948;-96
2023/04/27 10:53:25;;;;;;;;;;;18.90;39.00;;;;;;5058586;28;19982;-96
2023/04/27 10:55:55;;;;;;;;;;;19.00;42.10;;;;;;5056451;28;19948;-96
2023/04/27 10:58:24;;;;;;;;;;;19.00;41.60;;;;;;5057221;28;19932;-96
2023/04/27 11:00:49;;;;;;;;;;;19.10;46.40;;;;;;5057632;28;19920;-96
2023/04/27 11:03:17;;;;;;;;;;;19.30;46.80;;;;;;5058762;28;19912;-96
2023/04/27 11:05:44;;;;;;;;;;;19.40;44.30;;;;;;5057042;28;19971;-96
2023/04/27 11:08:11;;;;;;;;;;;19.60;43.60;;;;;;5059827;28;19913;-96
2023/04/27 11:10:42;;;;;;;;;;;19.80;43.50;;;;;;5059580;28;19991;-96
2023/04/27 11:13:11;;;;;;;;;;;19.80;40.60;;;;;;5059684;28;19915;-96
2023/04/27 11:15:42;;;;;;;;;;;19.80;41.00;;;;;;5060097;28;19912;-96
2023/04/27 11:18:07;;;;;;;;;;;19.90;40.50;;;;;;5059151;28;19958;-96
2023/04/27 11:20:33;;;;;;;;;;;20.10;41.20;;;;;;5057333;28;19913;-96
2023/04/27 11:22:58;;;;;;;;;;;20.30;43.10;;;;;;5056367;28;19909;-96
2023/04/27 11:25:28;;;;;;;;;;;20.40;45.10;;;;;;5059804;28;19932;-96
2023/04/27 11:27:53;;;;;;;;;;;20.40;44.80;;;;;;5055972;28;19959;-96
2023/04/27 11:30:20;;;;;;;;;;;20.30;45.30;;;;;;5055611;28;19909;-96
2023/04/27 11:32:46;;;;;;;;;;;20.00;44.00;;;;;;5055531;28;19909;-96
2023/04/27 11:35:12;;;;;;;;;;;19.90;42.10;;;;;;5058307;28;19931;-96
2023/04/27 11:37:38;;;;;;;;;;;19.80;42.40;;;;;;5061334;28;19909;-96
2023/04/27 11:40:04;;;;;;;;;;;19.90;43.70;;;;;;5061418;28;19963;-96
2023/04/27 11:42:33;;;;;;;;;;;20.00;42.80;;;;;;5059296;28;19916;-96
2023/04/27 11:45:00;;;;;;;;;;;20.20;38.60;;;;;;5058089;28;19908;-96
2023/04/27 11:47:27;;;;;;;;;;;20.50;41.70;;;;;;5062624;28;19909;-96
2023/04/27 11:49:57;;;;;;;;;;;20.70;40.10;;;;;;5064687;28;19909;-96
2023/04/27 11:52:36;;;;;;;;;;;20.80;41.50;;;;;;5059793;28;19913;-96
2023/04/27 11:55:02;;;;;;;;;;;21.00;41.10;;;;;;5059192;28;19908;-96
2023/04/27 11:57:29;;;;;;;;;;;21.10;38.50;;;;;;5057774;28;20280;-96
2023/04/27 11:59:59;;;;;;;;;;;21.30;44.00;;;;;;5070987;28;19896;-96
2023/04/27 12:02:25;;;;;;;;;;;21.60;47.10;;;;;;5063941;28;19921;-96
2023/04/27 12:04:52;;;;;;;;;;;21.90;43.90;;;;;;5065650;28;19996;-96
2023/04/27 12:07:17;;;;;;;;;;;22.20;43.70;;;;;;5072289;28;19916;-96
2023/04/27 12:09:43;;;;;;;;;;;22.30;40.60;;;;;;5070382;28;19909;-96
2023/04/27 12:12:10;;;;;;;;;;;22.50;37.40;;;;;;5066066;28;19968;-96
2023/04/27 12:14:35;;;;;;;;;;;22.80;39.70;;;;;;5067780;28;19913;-96
2023/04/27 12:17:01;;;;;;;;;;;23.00;41.70;;;;;;5068728;28;19968;-96
2023/04/27 12:19:28;;;;;;;;;;;23.10;41.20;;;;;;5069885;28;19962;-96
2023/04/27 12:21:54;;;;;;;;;;;23.30;40.70;;;;;;5069778;28;19920;-96
2023/04/27 12:24:20;;;;;;;;;;;23.30;40.80;;;;;;5068498;28;19912;-96
2023/04/27 12:26:47;;;;;;;;;;;23.20;39.10;;;;;;5066975;28;19909;-96
2023/04/27 12:29:12;;;;;;;;;;;23.10;37.70;;;;;;5063645;28;20287;-96
2023/04/27 12:31:41;;;;;;;;;;;23.00;39.00;;;;;;5065988;28;19944;-96
2023/04/27 12:34:06;;;;;;;;;;;23.20;38.00;;;;;;5064531;28;19909;-96
2023/04/27 12:36:32;;;;;;;;;;;23.40;37.60;;;;;;5069888;28;19913;-96
2023/04/27 12:39:00;;;;;;;;;;;23.80;39.10;;;;;;5069975;28;19962;-96
2023/04/27 12:41:28;;;;;;;;;;;24.50;42.00;;;;;;5074539;28;19917;-96
2023/04/27 12:44:07;;;;;;;;;;;24.50;37.80;;;;;;5060681;28;19893;-96
2023/04/27 13:41:44;;;;;;;;;;;24.00;38.60;;;;;;5332823;23;20318;-96
2023/04/27 13:44:19;;;;;;;;;;;23.70;39.20;;;;;;5035236;28;19936;-96
2023/04/27 13:46:50;;;;;;;;;;;23.50;39.60;;;;;;5036860;28;19910;-96
2023/04/27 13:49:20;;;;;;;;;;;23.30;36.80;;;;;;5037614;28;19913;-96
2023/04/27 13:51:52;;;;;;;;;;;23.40;37.20;;;;;;5034992;28;19920;-97
2023/04/27 13:54:22;;;;;;;;;;;23.60;39.60;;;;;;5037863;28;19988;-96
2023/04/27 13:56:56;;;;;;;;;;;23.60;37.70;;;;;;5036404;28;19977;-96
2023/04/27 13:59:33;;;;;;;;;;;23.60;36.80;;;;;;5036668;28;19904;-96
2023/04/27 14:02:06;;;;;;;;;;;23.90;36.70;;;;;;5038237;28;19913;-96
2023/04/27 14:25:15;;;;;;;;;;;26.30;38.00;;;;;;5874792;23;19925;-96
2023/04/27 14:27:41;;;;;;;;;;;27.00;35.40;;;;;;5032853;28;19936;-96
2023/04/27 14:33:14;;;;;;;;;;;27.40;30.20;;;;;;5414841;23;19953;-96
2023/04/27 14:35:43;;;;;;;;;;;27.40;34.10;;;;;;5038208;28;19910;-96
2023/04/27 14:38:10;;;;;;;;;;;27.60;34.10;;;;;;5037086;28;19925;-96
2023/04/27 14:40:36;;;;;;;;;;;27.50;33.50;;;;;;5035695;28;19893;-96
2023/04/27 14:43:08;;;;;;;;;;;27.40;35.70;;;;;;5035850;28;19940;-96
2023/04/27 14:45:37;;;;;;;;;;;27.70;33.00;;;;;;5034669;28;19916;-96
2023/04/27 14:48:03;;;;;;;;;;;28.00;35.20;;;;;;5033753;28;19933;-96
2023/04/27 14:50:30;;;;;;;;;;;28.10;33.10;;;;;;5032938;28;19909;-96
2023/04/27 14:52:57;;;;;;;;;;;27.70;35.30;;;;;;5033640;28;19910;-96
2023/04/27 14:55:26;;;;;;;;;;;27.40;34.40;;;;;;5035045;28;19910;-96
2023/04/27 14:57:52;;;;;;;;;;;27.30;34.90;;;;;;5034667;28;19910;-96
2023/04/27 15:00:18;;;;;;;;;;;27.20;36.40;;;;;;5034634;28;19952;-96
2023/04/27 15:02:45;;;;;;;;;;;27.20;36.20;;;;;;5035814;28;19909;-96
2023/04/27 15:05:11;;;;;;;;;;;27.00;36.50;;;;;;5031731;28;19909;-96
2023/04/27 15:07:37;;;;;;;;;;;26.80;36.00;;;;;;5032841;28;19971;-96
2023/04/27 15:10:08;;;;;;;;;;;27.10;36.90;;;;;;5033951;28;19910;-96
2023/04/27 15:12:37;;;;;;;;;;;27.40;36.60;;;;;;5034295;28;20435;-96
2023/04/27 15:15:06;;;;;;;;;;;27.50;36.10;;;;;;5032654;28;19910;-96
2023/04/27 15:17:32;;;;;;;;;;;27.40;35.50;;;;;;5034207;28;19910;-96
2023/04/27 15:20:01;;;;;;;;;;;27.70;35.70;;;;;;5033473;28;19910;-96
2023/04/27 15:22:27;;;;;;;;;;;27.90;36.00;;;;;;5033662;28;19919;-96
2023/04/27 15:24:58;;;;;;;;;;;27.20;35.80;;;;;;5035683;28;19932;-96
2023/04/27 15:27:25;;;;;;;;;;;27.00;36.30;;;;;;5038069;28;19940;-96
2023/04/27 15:29:58;;;;;;;;;;;27.20;36.70;;;;;;5038776;28;19910;-96
2023/04/27 15:32:29;;;;;;;;;;;27.60;35.50;;;;;;5037163;28;19936;-96
2023/04/27 15:35:07;;;;;;;;;;;27.90;35.40;;;;;;5039027;28;19912;-96
2023/04/27 15:37:35;;;;;;;;;;;28.10;34.90;;;;;;5036972;28;19955;-96